createdAt,value
2017-06-27T03:50:11.911Z,20.67
2017-06-27T03:52:39.360Z,20.65
2017-06-27T03:55:06.787Z,20.75
2017-06-27T03:57:34.181Z,20.84
2017-06-27T04:00:01.629Z,20.88
2017-06-27T04:02:29.295Z,20.95
2017-06-27T04:04:56.727Z,20.99
2017-06-27T04:07:24.144Z,20.93
2017-06-27T04:09:51.559Z,20.94
2017-06-27T04:12:19.873Z,20.96
2017-06-27T04:14:47.415Z,20.92
2017-06-27T04:17:14.939Z,20.92
2017-06-27T04:19:42.389Z,20.84
2017-06-27T04:22:10.449Z,20.93
2017-06-27T04:24:37.869Z,20.87
2017-06-27T04:27:05.413Z,20.92
2017-06-27T04:29:32.863Z,20.85
2017-06-27T04:32:00.308Z,20.86
2017-06-27T04:34:27.711Z,20.94
2017-06-27T04:36:55.173Z,20.92
2017-06-27T04:39:22.575Z,21.18
2017-06-27T04:41:49.996Z,21.22
2017-06-27T04:44:17.463Z,21.24
2017-06-27T04:46:44.920Z,21.30
2017-06-27T04:49:12.324Z,21.36
2017-06-27T04:51:39.728Z,21.44
2017-06-27T04:54:07.187Z,21.48
2017-06-27T04:56:34.596Z,21.47
2017-06-27T04:59:02.019Z,21.50
2017-06-27T05:01:29.458Z,21.41
2017-06-27T05:03:57.427Z,21.38
2017-06-27T05:06:24.869Z,21.22
2017-06-27T05:08:52.285Z,21.20
2017-06-27T05:11:19.715Z,21.34
2017-06-27T05:13:47.161Z,21.45
2017-06-27T05:16:14.594Z,21.48
2017-06-27T05:18:42.031Z,21.46
2017-06-27T05:21:09.546Z,21.44
2017-06-27T05:23:36.959Z,21.53
2017-06-27T05:26:04.364Z,21.46
2017-06-27T05:28:31.812Z,21.50
2017-06-27T05:30:59.239Z,21.56
2017-06-27T05:33:26.664Z,21.59
2017-06-27T05:35:54.141Z,21.55
2017-06-27T05:38:21.616Z,21.53
2017-06-27T05:40:49.039Z,21.67
2017-06-27T05:43:16.524Z,21.73
2017-06-27T05:45:43.931Z,21.79
2017-06-27T05:48:11.344Z,21.68
2017-06-27T05:50:38.808Z,21.72
2017-06-27T05:53:06.269Z,21.67
2017-06-27T05:55:33.706Z,21.66
2017-06-27T05:58:01.176Z,21.52
2017-06-27T06:00:28.611Z,21.53
2017-06-27T06:02:56.056Z,21.30
2017-06-27T06:05:23.489Z,21.45
2017-06-27T06:07:50.932Z,21.55
2017-06-27T06:10:18.403Z,21.67
2017-06-27T06:12:45.885Z,21.75
2017-06-27T06:15:13.291Z,21.86
2017-06-27T06:17:40.747Z,22.03
2017-06-27T06:20:08.169Z,22.10
2017-06-27T06:22:35.614Z,22.18
2017-06-27T06:25:03.023Z,22.12
2017-06-27T06:27:30.491Z,21.99
2017-06-27T06:29:58.071Z,21.98
2017-06-27T06:32:25.794Z,22.04
2017-06-27T06:34:53.224Z,22.18
2017-06-27T06:37:20.774Z,22.09
2017-06-27T06:39:48.256Z,22.13
2017-06-27T06:42:15.646Z,22.35
2017-06-27T06:44:43.074Z,22.61
2017-06-27T06:47:10.551Z,22.71
2017-06-27T06:49:37.979Z,22.90
2017-06-27T06:52:05.428Z,22.63
2017-06-27T06:54:33.111Z,22.64
2017-06-27T06:57:00.531Z,22.70
2017-06-27T06:59:27.936Z,22.94
2017-06-27T07:01:55.402Z,23.14
2017-06-27T07:04:22.803Z,23.14
2017-06-27T07:06:50.248Z,23.33
2017-06-27T07:09:17.703Z,23.48
2017-06-27T07:11:45.111Z,23.43
2017-06-27T07:14:12.520Z,23.58
2017-06-27T07:16:40.030Z,23.75
2017-06-27T07:19:07.427Z,23.92
2017-06-27T07:21:34.839Z,23.82
2017-06-27T07:24:02.297Z,23.60
2017-06-27T07:26:29.698Z,23.63
2017-06-27T07:28:57.123Z,23.65
2017-06-27T07:31:24.557Z,23.59
2017-06-27T07:33:51.993Z,23.45
2017-06-27T07:36:19.479Z,23.77
2017-06-27T07:38:46.899Z,23.75
2017-06-27T07:41:14.357Z,23.67
2017-06-27T07:43:41.772Z,23.78
2017-06-27T07:46:09.192Z,23.93
2017-06-27T07:48:36.636Z,23.81
2017-06-27T07:51:04.083Z,23.61
2017-06-27T07:53:31.521Z,23.63
2017-06-27T07:55:58.931Z,23.82
2017-06-27T07:58:26.419Z,23.74
2017-06-27T08:00:53.900Z,23.59
2017-06-27T08:03:21.359Z,23.73
2017-06-27T08:05:48.821Z,23.85
2017-06-27T08:08:16.264Z,24.13
2017-06-27T08:10:43.723Z,24.37
2017-06-27T08:13:11.119Z,24.76
2017-06-27T08:15:38.636Z,25.08
2017-06-27T08:18:06.176Z,25.22
2017-06-27T08:20:33.589Z,25.06
2017-06-27T08:23:01.003Z,25.35
2017-06-27T08:25:28.440Z,25.69
2017-06-27T08:27:55.851Z,25.78
2017-06-27T08:30:23.251Z,25.86
2017-06-27T08:32:50.795Z,26.13
2017-06-27T08:35:18.383Z,26.01
2017-06-27T08:37:45.801Z,25.97
2017-06-27T08:40:13.207Z,26.22
2017-06-27T08:42:40.641Z,26.48
2017-06-27T08:45:08.069Z,26.63
2017-06-27T08:47:35.475Z,26.50
2017-06-27T08:50:05.675Z,26.56
2017-06-27T08:52:33.131Z,26.83
2017-06-27T08:55:00.563Z,26.48
2017-06-27T08:57:28.020Z,26.41
2017-06-27T08:59:55.436Z,25.91
2017-06-27T09:02:22.891Z,25.46
2017-06-27T09:04:50.437Z,25.48
2017-06-27T09:07:17.872Z,25.38
2017-06-27T09:09:45.319Z,25.32
2017-06-27T09:12:12.729Z,25.46
2017-06-27T09:14:40.139Z,25.45
2017-06-27T09:17:07.580Z,25.52
2017-06-27T09:19:34.995Z,25.62
2017-06-27T09:22:02.442Z,25.62
2017-06-27T09:24:30.458Z,26.06
2017-06-27T09:26:57.909Z,26.29
2017-06-27T09:29:25.358Z,26.54
2017-06-27T09:31:52.782Z,26.67
2017-06-27T09:34:20.221Z,26.86
2017-06-27T09:36:47.631Z,26.78
2017-06-27T09:39:15.068Z,27.16
2017-06-27T09:41:42.475Z,27.14
2017-06-27T09:44:09.980Z,27.20
2017-06-27T09:46:37.379Z,27.59
2017-06-27T09:49:04.844Z,27.50
2017-06-27T09:51:32.266Z,27.12
2017-06-27T09:53:59.689Z,26.91
2017-06-27T09:56:27.123Z,27.32
2017-06-27T09:58:55.200Z,27.94
2017-06-27T10:01:22.645Z,27.81
2017-06-27T10:03:50.081Z,27.63
2017-06-27T10:06:17.503Z,27.52
2017-06-27T10:08:44.940Z,27.96
2017-06-27T10:11:12.387Z,27.98
2017-06-27T10:13:39.840Z,28.10
2017-06-27T10:16:07.275Z,28.23
2017-06-27T10:18:34.683Z,28.12
2017-06-27T10:21:02.130Z,28.06
2017-06-27T10:23:29.548Z,27.95
2017-06-27T10:25:57.027Z,27.72
2017-06-27T10:28:24.511Z,27.69
2017-06-27T10:30:51.914Z,27.53
2017-06-27T10:33:19.352Z,27.61
2017-06-27T10:35:46.771Z,27.64
2017-06-27T10:38:14.925Z,27.69
2017-06-27T10:40:42.347Z,27.89
2017-06-27T10:43:09.803Z,27.78
2017-06-27T10:45:37.227Z,27.90
2017-06-27T10:48:04.657Z,28.30
2017-06-27T10:50:32.067Z,28.70
2017-06-27T10:52:59.487Z,28.88
2017-06-27T10:55:26.906Z,28.96
2017-06-27T10:57:54.356Z,29.08
2017-06-27T11:00:21.775Z,29.43
2017-06-27T11:02:49.240Z,29.70
2017-06-27T11:05:16.686Z,29.43
2017-06-27T11:07:44.120Z,29.00
2017-06-27T11:10:11.573Z,28.99
2017-06-27T11:12:38.989Z,29.36
2017-06-27T11:15:06.423Z,29.58
2017-06-27T11:17:33.832Z,29.62
2017-06-27T11:20:01.250Z,29.21
2017-06-27T11:22:28.700Z,29.21
2017-06-27T11:24:56.103Z,29.02
2017-06-27T11:27:23.524Z,28.79
2017-06-27T11:29:50.960Z,28.83
2017-06-27T11:32:18.444Z,29.15
2017-06-27T11:34:45.861Z,29.43
2017-06-27T11:37:13.315Z,28.97
2017-06-27T11:39:40.724Z,29.15
2017-06-27T11:42:08.135Z,29.37
2017-06-27T11:44:35.637Z,28.86
2017-06-27T11:47:03.089Z,28.99
2017-06-27T11:49:30.532Z,29.18
2017-06-27T11:51:57.955Z,29.19
2017-06-27T11:54:25.420Z,29.43
2017-06-27T11:56:52.868Z,29.94
2017-06-27T11:59:20.364Z,30.02
2017-06-27T12:01:59.595Z,29.78
2017-06-27T12:04:34.571Z,29.89
2017-06-27T12:07:06.934Z,29.90
2017-06-27T12:09:34.359Z,29.56
2017-06-27T12:12:01.807Z,29.08
2017-06-27T12:14:29.244Z,29.05
2017-06-27T12:16:56.669Z,28.86
2017-06-27T12:19:24.108Z,28.93
2017-06-27T12:21:51.605Z,28.99
2017-06-27T12:24:19.051Z,29.31
2017-06-27T12:26:46.482Z,29.62
2017-06-27T12:29:13.951Z,29.79
2017-06-27T12:31:41.359Z,29.50
2017-06-27T12:34:08.815Z,29.48
2017-06-27T12:36:36.223Z,29.09
2017-06-27T12:39:03.644Z,29.46
2017-06-27T12:41:31.112Z,30.25
2017-06-27T12:43:58.565Z,30.47
2017-06-27T12:46:25.999Z,30.79
2017-06-27T12:48:53.441Z,31.04
2017-06-27T12:51:20.861Z,31.07
2017-06-27T12:53:48.344Z,32.29
2017-06-27T12:56:15.852Z,32.84
2017-06-27T12:58:43.338Z,33.56
2017-06-27T13:01:10.801Z,35.28
2017-06-27T13:03:38.303Z,35.51
2017-06-27T13:06:05.747Z,35.10
2017-06-27T13:08:33.180Z,36.00
2017-06-27T13:11:00.599Z,34.95
2017-06-27T13:13:28.124Z,34.87
2017-06-27T13:15:55.544Z,35.18
2017-06-27T13:18:22.957Z,34.87
2017-06-27T13:20:50.461Z,33.47
2017-06-27T13:23:17.952Z,32.14
2017-06-27T13:25:45.359Z,31.46
2017-06-27T13:28:12.799Z,31.32
2017-06-27T13:30:40.232Z,30.93
2017-06-27T13:33:07.852Z,31.03
2017-06-27T13:35:35.283Z,30.99
2017-06-27T13:38:02.731Z,31.02
2017-06-27T13:40:30.147Z,30.91
2017-06-27T13:42:57.600Z,30.91
2017-06-27T13:45:25.016Z,31.00
2017-06-27T13:47:52.467Z,30.79
2017-06-27T13:50:19.883Z,30.83
2017-06-27T13:52:47.303Z,30.60
2017-06-27T13:55:14.743Z,30.36
2017-06-27T13:57:42.159Z,30.45
2017-06-27T14:00:09.610Z,30.98
2017-06-27T14:02:37.075Z,31.00
2017-06-27T14:05:04.532Z,31.31
2017-06-27T14:07:31.959Z,31.97
2017-06-27T14:09:59.377Z,31.61
2017-06-27T14:12:26.831Z,31.23
2017-06-27T14:14:54.257Z,31.26
2017-06-27T14:17:21.667Z,31.40
2017-06-27T14:19:49.113Z,31.08
2017-06-27T14:22:16.532Z,31.00
2017-06-27T14:24:44.160Z,31.48
2017-06-27T14:27:11.591Z,31.57
2017-06-27T14:29:39.028Z,31.67
2017-06-27T14:32:06.465Z,31.51
2017-06-27T14:34:34.013Z,31.55
2017-06-27T14:37:01.425Z,32.54
2017-06-27T14:39:28.863Z,32.62
2017-06-27T14:41:56.329Z,32.16
2017-06-27T14:44:23.742Z,31.80
2017-06-27T14:46:51.212Z,31.21
2017-06-27T14:49:18.970Z,31.46
2017-06-27T14:51:46.379Z,30.89
2017-06-27T14:54:13.865Z,30.53
2017-06-27T14:56:41.312Z,30.29
2017-06-27T14:59:08.767Z,30.31
2017-06-27T15:01:36.171Z,30.03
2017-06-27T15:04:03.621Z,30.12
2017-06-27T15:06:31.031Z,29.79
2017-06-27T15:08:58.471Z,29.61
2017-06-27T15:11:25.883Z,29.49
2017-06-27T15:13:53.296Z,29.34
2017-06-27T15:16:20.864Z,29.53
2017-06-27T15:18:48.403Z,29.79
2017-06-27T15:21:15.815Z,29.83
2017-06-27T15:23:43.256Z,30.17
2017-06-27T15:26:10.652Z,30.12
2017-06-27T15:28:38.100Z,30.19
2017-06-27T15:31:05.522Z,30.15
2017-06-27T15:33:33.021Z,29.89
2017-06-27T15:36:00.501Z,29.98
2017-06-27T15:38:27.907Z,29.65
2017-06-27T15:40:55.320Z,29.47
2017-06-27T15:43:22.781Z,29.47
2017-06-27T15:45:50.199Z,29.39
2017-06-27T15:48:17.653Z,29.44
2017-06-27T15:50:45.120Z,29.20
2017-06-27T15:53:12.543Z,29.37
2017-06-27T15:55:39.978Z,29.35
2017-06-27T15:58:07.407Z,29.39
2017-06-27T16:00:34.856Z,29.30
2017-06-27T16:03:02.299Z,29.44
2017-06-27T16:05:30.544Z,29.49
2017-06-27T16:08:14.549Z,29.35
2017-06-27T16:11:00.665Z,29.50
2017-06-27T16:13:28.492Z,29.57
2017-06-27T16:15:56.056Z,29.34
2017-06-27T16:18:23.618Z,29.11
2017-06-27T16:20:51.395Z,29.06
2017-06-27T16:23:19.081Z,28.90
2017-06-27T16:25:46.547Z,28.90
2017-06-27T16:28:15.642Z,28.72
2017-06-27T16:30:44.422Z,28.62
2017-06-27T16:33:13.833Z,28.54
2017-06-27T16:35:42.030Z,28.41
2017-06-27T16:38:11.640Z,28.23
2017-06-27T16:40:40.698Z,28.10
2017-06-27T16:43:09.789Z,28.10
2017-06-27T16:45:38.346Z,28.02
2017-06-27T16:48:07.384Z,27.97
2017-06-27T16:50:35.866Z,27.92
2017-06-27T16:53:04.865Z,27.84
2017-06-27T16:55:34.703Z,27.79
2017-06-27T16:58:03.958Z,27.70
2017-06-27T17:00:33.405Z,27.77
2017-06-27T17:03:02.337Z,27.93
2017-06-27T17:05:30.278Z,27.98
2017-06-27T17:07:59.869Z,28.08
2017-06-27T17:10:28.757Z,28.17
2017-06-27T17:12:57.960Z,28.33
2017-06-27T17:15:26.328Z,28.40
2017-06-27T17:17:56.147Z,28.23
2017-06-27T17:20:24.356Z,28.06
2017-06-27T17:22:53.471Z,28.05
2017-06-27T17:25:23.572Z,27.92
2017-06-27T17:27:52.910Z,27.78
2017-06-27T17:30:23.347Z,27.70
2017-06-27T17:32:53.546Z,27.63
2017-06-27T17:35:23.080Z,27.33
2017-06-27T17:37:52.399Z,27.30
2017-06-27T17:40:22.576Z,27.37
2017-06-27T17:42:50.293Z,27.50
2017-06-27T17:45:19.721Z,27.69
2017-06-27T17:47:48.776Z,27.76
2017-06-27T17:50:18.382Z,27.76
2017-06-27T17:52:46.642Z,27.50
2017-06-27T17:55:16.226Z,27.27
2017-06-27T17:57:45.416Z,27.48
2017-06-27T18:00:14.814Z,27.66
2017-06-27T18:02:43.880Z,27.65
2017-06-27T18:05:12.972Z,27.44
2017-06-27T18:07:42.504Z,27.30
2017-06-27T18:10:10.966Z,26.99
2017-06-27T18:12:40.623Z,27.01
2017-06-27T18:15:09.658Z,27.01
2017-06-27T18:17:39.767Z,27.12
2017-06-27T18:20:08.519Z,27.26
2017-06-27T18:22:37.991Z,27.34
2017-06-27T18:25:07.093Z,27.36
2017-06-27T18:27:35.191Z,27.43
2017-06-27T18:30:04.571Z,27.55
2017-06-27T18:32:32.818Z,27.55
2017-06-27T18:35:01.549Z,27.53
2017-06-27T18:37:32.869Z,27.49
2017-06-27T18:40:02.179Z,27.41
2017-06-27T18:42:31.634Z,27.28
2017-06-27T18:45:00.979Z,27.36
2017-06-27T18:47:30.167Z,27.44
2017-06-27T18:49:58.268Z,27.42
2017-06-27T18:52:27.781Z,27.35
2017-06-27T18:54:57.150Z,27.36
2017-06-27T18:57:24.802Z,27.14
2017-06-27T18:59:52.589Z,27.13
2017-06-27T19:02:20.315Z,27.04
2017-06-27T19:04:48.132Z,27.08
2017-06-27T19:07:16.270Z,27.03
2017-06-27T19:09:44.027Z,27.02
2017-06-27T19:12:11.816Z,27.04
2017-06-27T19:14:39.570Z,26.92
2017-06-27T19:17:07.359Z,26.76
2017-06-27T19:19:35.088Z,26.59
2017-06-27T19:22:02.956Z,26.70
2017-06-27T19:24:30.695Z,26.75
2017-06-27T19:26:58.411Z,26.82
2017-06-27T19:29:26.338Z,26.83
2017-06-27T19:31:54.063Z,26.77
2017-06-27T19:34:22.593Z,26.75
2017-06-27T19:36:50.333Z,26.72
2017-06-27T19:39:18.163Z,26.62
2017-06-27T19:41:45.992Z,26.28
2017-06-27T19:44:13.836Z,26.12
2017-06-27T19:46:41.603Z,26.18
2017-06-27T19:49:09.350Z,26.23
2017-06-27T19:51:37.179Z,26.23
2017-06-27T19:54:06.693Z,26.27
2017-06-27T19:56:34.456Z,26.21
2017-06-27T19:59:02.225Z,26.15
2017-06-27T20:01:29.994Z,26.16
2017-06-27T20:03:57.882Z,26.03
2017-06-27T20:06:25.763Z,26.01
2017-06-27T20:08:53.710Z,26.01
2017-06-27T20:11:21.509Z,26.03
2017-06-27T20:13:49.248Z,26.06
2017-06-27T20:16:16.982Z,25.97
2017-06-27T20:18:44.872Z,25.92
2017-06-27T20:21:12.606Z,25.89
2017-06-27T20:23:40.368Z,25.77
2017-06-27T20:26:08.098Z,25.49
2017-06-27T20:28:35.782Z,25.50
2017-06-27T20:31:03.636Z,25.34
2017-06-27T20:33:31.389Z,25.37
2017-06-27T20:35:59.115Z,25.42
2017-06-27T20:38:26.862Z,25.39
2017-06-27T20:40:54.598Z,25.41
2017-06-27T20:43:22.292Z,25.32
2017-06-27T20:45:49.912Z,25.34
2017-06-27T20:48:17.544Z,25.37
2017-06-27T20:50:45.103Z,25.30
2017-06-27T20:53:12.605Z,25.34
2017-06-27T20:55:40.058Z,25.33
2017-06-27T20:58:07.501Z,25.40
2017-06-27T21:00:34.955Z,25.41
2017-06-27T21:03:02.401Z,25.26
2017-06-27T21:05:29.833Z,25.28
2017-06-27T21:07:57.614Z,25.23
2017-06-27T21:10:25.196Z,25.25
2017-06-27T21:12:52.628Z,25.23
2017-06-27T21:15:20.180Z,25.23
2017-06-27T21:17:47.638Z,25.09
2017-06-27T21:20:15.053Z,24.96
2017-06-27T21:22:42.467Z,24.64
2017-06-27T21:25:09.921Z,24.44
2017-06-27T21:27:37.396Z,24.37
2017-06-27T21:30:04.816Z,24.42
2017-06-27T21:32:32.347Z,24.52
2017-06-27T21:34:59.916Z,24.50
2017-06-27T21:37:27.451Z,24.55
2017-06-27T21:39:54.874Z,24.50
2017-06-27T21:42:22.271Z,24.48
2017-06-27T21:44:49.732Z,24.47
2017-06-27T21:47:17.148Z,24.46
2017-06-27T21:49:44.560Z,24.49
2017-06-27T21:52:12.063Z,24.55
2017-06-27T21:54:39.544Z,24.46
2017-06-27T21:57:06.979Z,24.45
2017-06-27T21:59:34.429Z,24.47
2017-06-27T22:02:01.848Z,24.44
2017-06-27T22:04:29.252Z,24.44
2017-06-27T22:06:56.730Z,24.43
2017-06-27T22:09:24.180Z,24.39
2017-06-27T22:11:51.754Z,24.39
2017-06-27T22:14:19.360Z,24.40
2017-06-27T22:16:46.803Z,24.44
2017-06-27T22:19:14.232Z,24.48
2017-06-27T22:21:41.648Z,24.49
2017-06-27T22:24:09.101Z,24.45
2017-06-27T22:26:36.515Z,24.39
2017-06-27T22:29:04.015Z,24.34
2017-06-27T22:31:31.475Z,24.32
2017-06-27T22:33:58.915Z,24.19
2017-06-27T22:36:26.364Z,24.23
2017-06-27T22:38:53.802Z,24.20
2017-06-27T22:41:21.243Z,24.21
2017-06-27T22:43:48.651Z,24.18
2017-06-27T22:46:16.124Z,24.01
2017-06-27T22:48:43.615Z,24.03
2017-06-27T22:51:11.051Z,23.98
2017-06-27T22:53:38.520Z,23.78
2017-06-27T22:56:05.955Z,23.95
2017-06-27T22:58:33.384Z,23.91
2017-06-27T23:01:00.811Z,24.02
2017-06-27T23:03:28.288Z,23.95
2017-06-27T23:05:55.973Z,23.87
2017-06-27T23:08:23.411Z,23.78
2017-06-27T23:10:50.852Z,23.79
2017-06-27T23:13:18.356Z,23.86
2017-06-27T23:15:45.780Z,23.91
2017-06-27T23:18:13.207Z,23.90
2017-06-27T23:20:40.639Z,23.89
2017-06-27T23:23:08.066Z,23.79
2017-06-27T23:25:35.548Z,23.69
2017-06-27T23:28:02.960Z,23.69
2017-06-27T23:30:31.147Z,23.64
2017-06-27T23:32:58.631Z,23.66
2017-06-27T23:35:26.035Z,23.72
2017-06-27T23:37:53.436Z,23.71
2017-06-27T23:40:20.882Z,23.67
2017-06-27T23:42:48.587Z,23.63
2017-06-27T23:45:16.020Z,23.48
2017-06-27T23:47:43.518Z,23.46
2017-06-27T23:50:10.955Z,23.53
2017-06-27T23:52:38.374Z,23.61
2017-06-27T23:55:05.814Z,23.67
2017-06-27T23:57:33.281Z,23.72
